sensor_id;sensor_type;location;lat;lon;timestamp;temperature;humidity
975;DHT22;6115;49.296;10.602;2024-01-16T00:03:04;-1.20;64.60
975;DHT22;6115;49.296;10.602;2024-01-16T00:08:05;-1.20;64.60
975;DHT22;6115;49.296;10.602;2024-01-16T00:13:06;-1.20;64.30
975;DHT22;6115;49.296;10.602;2024-01-16T00:18:06;-1.20;64.60
975;DHT22;6115;49.296;10.602;2024-01-16T00:23:08;-1.10;64.70
975;DHT22;6115;49.296;10.602;2024-01-16T00:28:09;-1.20;64.50
975;DHT22;6115;49.296;10.602;2024-01-16T00:33:09;-1.30;64.60
975;DHT22;6115;49.296;10.602;2024-01-16T00:38:10;-1.40;64.40
975;DHT22;6115;49.296;10.602;2024-01-16T00:43:11;-1.40;64.40
975;DHT22;6115;49.296;10.602;2024-01-16T00:48:11;-1.40;64.40
975;DHT22;6115;49.296;10.602;2024-01-16T00:53:15;-1.40;64.50
975;DHT22;6115;49.296;10.602;2024-01-16T00:58:16;-1.40;64.40
975;DHT22;6115;49.296;10.602;2024-01-16T01:03:16;-1.40;64.90
975;DHT22;6115;49.296;10.602;2024-01-16T01:08:17;-1.40;65.00
975;DHT22;6115;49.296;10.602;2024-01-16T01:13:18;-1.50;65.00
975;DHT22;6115;49.296;10.602;2024-01-16T01:18:19;-1.40;65.20
975;DHT22;6115;49.296;10.602;2024-01-16T01:23:19;-1.40;65.30
975;DHT22;6115;49.296;10.602;2024-01-16T01:28:20;-1.40;65.10
975;DHT22;6115;49.296;10.602;2024-01-16T01:33:20;-1.40;65.20
975;DHT22;6115;49.296;10.602;2024-01-16T01:38:21;-1.40;65.10
975;DHT22;6115;49.296;10.602;2024-01-16T01:43:25;-1.40;65.10
975;DHT22;6115;49.296;10.602;2024-01-16T01:48:26;-1.40;65.10
975;DHT22;6115;49.296;10.602;2024-01-16T01:53:27;-1.40;65.00
975;DHT22;6115;49.296;10.602;2024-01-16T01:58:29;-1.40;64.90
975;DHT22;6115;49.296;10.602;2024-01-16T02:03:29;-1.30;64.80
975;DHT22;6115;49.296;10.602;2024-01-16T02:08:32;-1.30;64.50
975;DHT22;6115;49.296;10.602;2024-01-16T02:13:33;-1.30;64.50
975;DHT22;6115;49.296;10.602;2024-01-16T02:18:33;-1.30;64.50
975;DHT22;6115;49.296;10.602;2024-01-16T02:23:34;-1.40;64.50
975;DHT22;6115;49.296;10.602;2024-01-16T02:28:35;-1.40;64.40
975;DHT22;6115;49.296;10.602;2024-01-16T02:33:35;-1.50;64.50
975;DHT22;6115;49.296;10.602;2024-01-16T02:38:36;-1.50;64.40
975;DHT22;6115;49.296;10.602;2024-01-16T02:43:36;-1.50;64.40
975;DHT22;6115;49.296;10.602;2024-01-16T02:48:37;-1.60;64.60
975;DHT22;6115;49.296;10.602;2024-01-16T02:53:38;-1.50;65.20
975;DHT22;6115;49.296;10.602;2024-01-16T02:58:38;-1.50;64.80
975;DHT22;6115;49.296;10.602;2024-01-16T03:03:39;-1.50;64.70
975;DHT22;6115;49.296;10.602;2024-01-16T03:08:40;-1.60;65.00
975;DHT22;6115;49.296;10.602;2024-01-16T03:13:40;-1.60;65.30
975;DHT22;6115;49.296;10.602;2024-01-16T03:18:41;-1.70;65.20
975;DHT22;6115;49.296;10.602;2024-01-16T03:23:41;-1.60;65.20
975;DHT22;6115;49.296;10.602;2024-01-16T03:28:42;-1.70;65.10
975;DHT22;6115;49.296;10.602;2024-01-16T03:33:43;-1.60;65.20
975;DHT22;6115;49.296;10.602;2024-01-16T03:38:43;-1.60;65.10
975;DHT22;6115;49.296;10.602;2024-01-16T03:43:44;-1.60;64.90
975;DHT22;6115;49.296;10.602;2024-01-16T03:48:44;-1.60;65.10
975;DHT22;6115;49.296;10.602;2024-01-16T03:53:45;-1.60;65.00
975;DHT22;6115;49.296;10.602;2024-01-16T03:58:46;-1.50;64.90
975;DHT22;6115;49.296;10.602;2024-01-16T04:03:46;-1.50;65.10
975;DHT22;6115;49.296;10.602;2024-01-16T04:08:47;-1.40;64.70
975;DHT22;6115;49.296;10.602;2024-01-16T04:13:47;-1.60;64.50
975;DHT22;6115;49.296;10.602;2024-01-16T04:18:48;-1.60;65.10
975;DHT22;6115;49.296;10.602;2024-01-16T04:23:49;-1.60;65.10
975;DHT22;6115;49.296;10.602;2024-01-16T04:28:49;-1.60;65.20
975;DHT22;6115;49.296;10.602;2024-01-16T04:33:50;-1.60;65.30
975;DHT22;6115;49.296;10.602;2024-01-16T04:38:50;-1.60;65.60
975;DHT22;6115;49.296;10.602;2024-01-16T04:43:51;-1.60;65.60
975;DHT22;6115;49.296;10.602;2024-01-16T04:48:51;-1.70;65.60
975;DHT22;6115;49.296;10.602;2024-01-16T04:53:52;-1.70;65.90
975;DHT22;6115;49.296;10.602;2024-01-16T04:58:53;-1.70;65.90
975;DHT22;6115;49.296;10.602;2024-01-16T05:03:53;-1.70;66.10
975;DHT22;6115;49.296;10.602;2024-01-16T05:08:55;-1.70;66.00
975;DHT22;6115;49.296;10.602;2024-01-16T05:13:55;-1.80;66.30
975;DHT22;6115;49.296;10.602;2024-01-16T05:18:59;-1.70;66.10
975;DHT22;6115;49.296;10.602;2024-01-16T05:23:59;-1.80;66.40
975;DHT22;6115;49.296;10.602;2024-01-16T05:29:00;-1.70;66.50
975;DHT22;6115;49.296;10.602;2024-01-16T05:34:01;-1.70;67.10
975;DHT22;6115;49.296;10.602;2024-01-16T05:39:01;-1.70;66.40
975;DHT22;6115;49.296;10.602;2024-01-16T05:44:02;-1.80;66.50
975;DHT22;6115;49.296;10.602;2024-01-16T05:49:06;-1.70;66.70
975;DHT22;6115;49.296;10.602;2024-01-16T05:54:06;-1.70;66.60
975;DHT22;6115;49.296;10.602;2024-01-16T05:59:07;-1.70;66.70
975;DHT22;6115;49.296;10.602;2024-01-16T06:04:08;-1.70;66.70
975;DHT22;6115;49.296;10.602;2024-01-16T06:09:08;-1.70;66.60
975;DHT22;6115;49.296;10.602;2024-01-16T06:14:09;-1.60;66.60
975;DHT22;6115;49.296;10.602;2024-01-16T06:19:10;-1.60;66.20
975;DHT22;6115;49.296;10.602;2024-01-16T06:24:11;-1.70;66.40
975;DHT22;6115;49.296;10.602;2024-01-16T06:29:13;-1.70;66.50
975;DHT22;6115;49.296;10.602;2024-01-16T06:34:14;-1.60;66.60
975;DHT22;6115;49.296;10.602;2024-01-16T06:39:14;-1.60;66.20
975;DHT22;6115;49.296;10.602;2024-01-16T06:44:15;-1.50;66.10
975;DHT22;6115;49.296;10.602;2024-01-16T06:49:15;-1.40;66.10
975;DHT22;6115;49.296;10.602;2024-01-16T06:54:16;-1.40;65.50
975;DHT22;6115;49.296;10.602;2024-01-16T06:59:16;-1.50;65.00
975;DHT22;6115;49.296;10.602;2024-01-16T07:04:19;-1.40;64.50
975;DHT22;6115;49.296;10.602;2024-01-16T07:09:20;-1.60;64.20
975;DHT22;6115;49.296;10.602;2024-01-16T07:14:21;-1.60;64.20
975;DHT22;6115;49.296;10.602;2024-01-16T07:19:21;-1.70;64.10
975;DHT22;6115;49.296;10.602;2024-01-16T07:24:22;-1.80;64.10
975;DHT22;6115;49.296;10.602;2024-01-16T07:29:23;-1.80;64.10
975;DHT22;6115;49.296;10.602;2024-01-16T07:34:24;-1.80;64.10
975;DHT22;6115;49.296;10.602;2024-01-16T07:39:25;-1.70;64.10
975;DHT22;6115;49.296;10.602;2024-01-16T07:44:26;-1.60;64.20
975;DHT22;6115;49.296;10.602;2024-01-16T07:49:26;-1.60;64.20
975;DHT22;6115;49.296;10.602;2024-01-16T07:54:27;-1.70;64.10
975;DHT22;6115;49.296;10.602;2024-01-16T07:59:28;-1.70;64.10
975;DHT22;6115;49.296;10.602;2024-01-16T08:04:28;-1.60;64.20
975;DHT22;6115;49.296;10.602;2024-01-16T08:09:29;-1.50;64.00
975;DHT22;6115;49.296;10.602;2024-01-16T08:14:30;-1.40;63.60
975;DHT22;6115;49.296;10.602;2024-01-16T08:19:30;-1.30;63.10
975;DHT22;6115;49.296;10.602;2024-01-16T08:24:31;-1.30;62.70
975;DHT22;6115;49.296;10.602;2024-01-16T08:29:32;-1.30;62.90
975;DHT22;6115;49.296;10.602;2024-01-16T08:34:32;-1.20;62.80
975;DHT22;6115;49.296;10.602;2024-01-16T08:39:33;-1.20;62.30
975;DHT22;6115;49.296;10.602;2024-01-16T08:44:34;-1.40;62.40
975;DHT22;6115;49.296;10.602;2024-01-16T08:49:35;-1.40;62.70
975;DHT22;6115;49.296;10.602;2024-01-16T08:54:35;-1.40;62.90
975;DHT22;6115;49.296;10.602;2024-01-16T08:59:36;-1.10;62.70
975;DHT22;6115;49.296;10.602;2024-01-16T09:04:37;-1.10;61.80
975;DHT22;6115;49.296;10.602;2024-01-16T09:09:38;-1.10;61.50
975;DHT22;6115;49.296;10.602;2024-01-16T09:14:39;-1.10;61.10
975;DHT22;6115;49.296;10.602;2024-01-16T09:19:39;-1.10;61.20
975;DHT22;6115;49.296;10.602;2024-01-16T09:24:40;-1.00;60.70
975;DHT22;6115;49.296;10.602;2024-01-16T09:29:40;-1.00;60.20
975;DHT22;6115;49.296;10.602;2024-01-16T09:34:41;-0.90;60.10
975;DHT22;6115;49.296;10.602;2024-01-16T09:39:42;-0.80;60.10
975;DHT22;6115;49.296;10.602;2024-01-16T09:44:43;-0.90;59.60
975;DHT22;6115;49.296;10.602;2024-01-16T09:49:46;-0.90;59.30
975;DHT22;6115;49.296;10.602;2024-01-16T09:54:46;-1.20;59.60
975;DHT22;6115;49.296;10.602;2024-01-16T09:59:49;-1.10;59.90
975;DHT22;6115;49.296;10.602;2024-01-16T10:04:49;-0.80;60.10
975;DHT22;6115;49.296;10.602;2024-01-16T10:09:50;-0.60;59.20
975;DHT22;6115;49.296;10.602;2024-01-16T10:14:51;-0.40;58.30
975;DHT22;6115;49.296;10.602;2024-01-16T10:19:52;-0.20;58.20
975;DHT22;6115;49.296;10.602;2024-01-16T10:25:08;-0.30;58.00
975;DHT22;6115;49.296;10.602;2024-01-16T10:30:10;-0.10;57.30
975;DHT22;6115;49.296;10.602;2024-01-16T10:35:14;0.20;56.70
975;DHT22;6115;49.296;10.602;2024-01-16T10:45:19;-0.10;56.40
975;DHT22;6115;49.296;10.602;2024-01-16T10:50:19;-0.10;56.20
975;DHT22;6115;49.296;10.602;2024-01-16T10:55:22;0.20;56.10
975;DHT22;6115;49.296;10.602;2024-01-16T11:00:23;0.50;55.40
975;DHT22;6115;49.296;10.602;2024-01-16T11:05:25;0.80;54.70
975;DHT22;6115;49.296;10.602;2024-01-16T11:10:27;0.90;54.10
975;DHT22;6115;49.296;10.602;2024-01-16T11:15:29;1.00;53.60
975;DHT22;6115;49.296;10.602;2024-01-16T11:20:30;1.00;53.00
975;DHT22;6115;49.296;10.602;2024-01-16T11:25:32;1.00;53.00
975;DHT22;6115;49.296;10.602;2024-01-16T11:30:33;0.90;52.70
975;DHT22;6115;49.296;10.602;2024-01-16T11:35:35;0.90;52.90
975;DHT22;6115;49.296;10.602;2024-01-16T11:40:37;0.60;52.70
975;DHT22;6115;49.296;10.602;2024-01-16T11:50:38;1.30;52.10
975;DHT22;6115;49.296;10.602;2024-01-16T11:56:15;0.90;50.80
975;DHT22;6115;49.296;10.602;2024-01-16T12:01:22;0.90;51.10
975;DHT22;6115;49.296;10.602;2024-01-16T12:06:23;1.10;50.90
975;DHT22;6115;49.296;10.602;2024-01-16T12:11:24;1.60;50.70
975;DHT22;6115;49.296;10.602;2024-01-16T12:16:25;1.50;50.30
975;DHT22;6115;49.296;10.602;2024-01-16T12:21:26;1.60;49.10
975;DHT22;6115;49.296;10.602;2024-01-16T12:26:26;1.40;49.00
975;DHT22;6115;49.296;10.602;2024-01-16T12:31:28;1.20;48.80
975;DHT22;6115;49.296;10.602;2024-01-16T12:36:29;1.10;48.80
975;DHT22;6115;49.296;10.602;2024-01-16T12:41:44;1.00;49.20
975;DHT22;6115;49.296;10.602;2024-01-16T12:46:55;0.90;49.40
975;DHT22;6115;49.296;10.602;2024-01-16T12:52:20;1.00;50.00
975;DHT22;6115;49.296;10.602;2024-01-16T12:57:21;1.00;49.60
975;DHT22;6115;49.296;10.602;2024-01-16T13:02:23;1.30;49.90
975;DHT22;6115;49.296;10.602;2024-01-16T13:07:25;1.30;49.90
975;DHT22;6115;49.296;10.602;2024-01-16T13:12:26;1.20;48.80
975;DHT22;6115;49.296;10.602;2024-01-16T13:17:34;1.00;48.70
975;DHT22;6115;49.296;10.602;2024-01-16T13:22:35;1.00;49.70
975;DHT22;6115;49.296;10.602;2024-01-16T13:27:35;1.00;49.40
975;DHT22;6115;49.296;10.602;2024-01-16T13:32:37;1.30;49.60
975;DHT22;6115;49.296;10.602;2024-01-16T13:37:37;1.20;49.10
975;DHT22;6115;49.296;10.602;2024-01-16T13:42:38;1.10;48.80
975;DHT22;6115;49.296;10.602;2024-01-16T13:47:39;0.60;49.00
975;DHT22;6115;49.296;10.602;2024-01-16T13:52:40;0.50;50.00
975;DHT22;6115;49.296;10.602;2024-01-16T13:57:41;0.70;50.00
975;DHT22;6115;49.296;10.602;2024-01-16T14:02:43;0.60;49.90
975;DHT22;6115;49.296;10.602;2024-01-16T14:07:45;0.70;49.70
975;DHT22;6115;49.296;10.602;2024-01-16T14:12:50;0.90;50.20
975;DHT22;6115;49.296;10.602;2024-01-16T14:17:55;0.90;49.50
975;DHT22;6115;49.296;10.602;2024-01-16T14:22:56;0.70;48.90
975;DHT22;6115;49.296;10.602;2024-01-16T14:28:02;0.70;49.00
975;DHT22;6115;49.296;10.602;2024-01-16T14:33:03;0.50;48.90
975;DHT22;6115;49.296;10.602;2024-01-16T14:38:07;0.50;49.20
975;DHT22;6115;49.296;10.602;2024-01-16T14:43:07;0.60;49.30
975;DHT22;6115;49.296;10.602;2024-01-16T14:48:09;0.70;49.40
975;DHT22;6115;49.296;10.602;2024-01-16T14:53:11;0.60;49.60
975;DHT22;6115;49.296;10.602;2024-01-16T14:58:11;0.60;49.50
975;DHT22;6115;49.296;10.602;2024-01-16T15:03:12;0.50;49.10
975;DHT22;6115;49.296;10.602;2024-01-16T15:08:14;0.50;49.50
975;DHT22;6115;49.296;10.602;2024-01-16T15:13:14;0.40;49.70
975;DHT22;6115;49.296;10.602;2024-01-16T15:18:15;0.30;49.80
975;DHT22;6115;49.296;10.602;2024-01-16T15:23:16;0.50;50.20
975;DHT22;6115;49.296;10.602;2024-01-16T15:28:17;0.40;50.00
975;DHT22;6115;49.296;10.602;2024-01-16T15:33:18;0.50;50.80
975;DHT22;6115;49.296;10.602;2024-01-16T15:38:18;0.60;51.00
975;DHT22;6115;49.296;10.602;2024-01-16T15:43:19;0.60;51.10
975;DHT22;6115;49.296;10.602;2024-01-16T15:48:19;0.50;51.30
975;DHT22;6115;49.296;10.602;2024-01-16T15:53:20;0.50;51.60
975;DHT22;6115;49.296;10.602;2024-01-16T15:58:20;0.40;52.00
975;DHT22;6115;49.296;10.602;2024-01-16T16:03:21;0.40;52.60
975;DHT22;6115;49.296;10.602;2024-01-16T16:08:21;0.30;53.10
975;DHT22;6115;49.296;10.602;2024-01-16T16:13:22;0.30;52.50
975;DHT22;6115;49.296;10.602;2024-01-16T16:18:24;0.20;52.40
975;DHT22;6115;49.296;10.602;2024-01-16T16:23:24;0.10;52.50
975;DHT22;6115;49.296;10.602;2024-01-16T16:28:25;0.00;52.60
975;DHT22;6115;49.296;10.602;2024-01-16T16:33:26;-0.10;53.00
975;DHT22;6115;49.296;10.602;2024-01-16T16:38:26;-0.20;53.40
975;DHT22;6115;49.296;10.602;2024-01-16T16:43:27;-0.50;53.80
975;DHT22;6115;49.296;10.602;2024-01-16T16:48:28;-0.50;54.30
975;DHT22;6115;49.296;10.602;2024-01-16T16:53:29;-0.50;54.60
975;DHT22;6115;49.296;10.602;2024-01-16T16:58:29;-0.50;55.00
975;DHT22;6115;49.296;10.602;2024-01-16T17:03:30;-0.60;55.30
975;DHT22;6115;49.296;10.602;2024-01-16T17:08:35;-0.70;55.90
975;DHT22;6115;49.296;10.602;2024-01-16T17:13:37;-0.80;55.90
975;DHT22;6115;49.296;10.602;2024-01-16T17:18:38;-0.80;55.90
975;DHT22;6115;49.296;10.602;2024-01-16T17:23:40;-0.80;55.90
975;DHT22;6115;49.296;10.602;2024-01-16T17:28:41;-0.90;55.80
975;DHT22;6115;49.296;10.602;2024-01-16T17:33:41;-1.00;55.70
975;DHT22;6115;49.296;10.602;2024-01-16T17:38:43;-1.00;56.00
975;DHT22;6115;49.296;10.602;2024-01-16T17:43:45;-1.10;56.40
975;DHT22;6115;49.296;10.602;2024-01-16T17:48:45;-1.10;56.80
975;DHT22;6115;49.296;10.602;2024-01-16T17:53:46;-1.20;56.90
975;DHT22;6115;49.296;10.602;2024-01-16T17:58:48;-1.20;57.00
975;DHT22;6115;49.296;10.602;2024-01-16T18:03:48;-1.30;56.90
975;DHT22;6115;49.296;10.602;2024-01-16T18:08:49;-1.40;56.80
975;DHT22;6115;49.296;10.602;2024-01-16T18:13:50;-1.60;56.60
975;DHT22;6115;49.296;10.602;2024-01-16T18:18:50;-1.80;56.80
975;DHT22;6115;49.296;10.602;2024-01-16T18:23:52;-2.00;56.80
975;DHT22;6115;49.296;10.602;2024-01-16T18:28:52;-2.10;57.00
975;DHT22;6115;49.296;10.602;2024-01-16T18:33:54;-2.30;57.00
975;DHT22;6115;49.296;10.602;2024-01-16T18:38:55;-2.50;57.70
975;DHT22;6115;49.296;10.602;2024-01-16T18:43:55;-2.70;57.20
975;DHT22;6115;49.296;10.602;2024-01-16T18:48:56;-2.80;57.40
975;DHT22;6115;49.296;10.602;2024-01-16T18:53:57;-3.00;57.50
975;DHT22;6115;49.296;10.602;2024-01-16T18:58:58;-3.30;57.50
975;DHT22;6115;49.296;10.602;2024-01-16T19:03:58;-3.50;57.80
975;DHT22;6115;49.296;10.602;2024-01-16T19:09:00;-3.60;57.80
975;DHT22;6115;49.296;10.602;2024-01-16T19:14:01;-3.70;57.80
975;DHT22;6115;49.296;10.602;2024-01-16T19:19:01;-3.80;58.10
975;DHT22;6115;49.296;10.602;2024-01-16T19:24:02;-4.00;58.00
975;DHT22;6115;49.296;10.602;2024-01-16T19:29:04;-4.10;58.30
975;DHT22;6115;49.296;10.602;2024-01-16T19:34:08;-4.30;58.40
975;DHT22;6115;49.296;10.602;2024-01-16T19:39:10;-4.50;58.50
975;DHT22;6115;49.296;10.602;2024-01-16T19:44:16;-4.60;58.60
975;DHT22;6115;49.296;10.602;2024-01-16T19:49:17;-4.80;58.70
975;DHT22;6115;49.296;10.602;2024-01-16T19:54:17;-5.00;58.80
975;DHT22;6115;49.296;10.602;2024-01-16T19:59:18;-5.10;59.60
975;DHT22;6115;49.296;10.602;2024-01-16T20:04:18;-5.20;59.20
975;DHT22;6115;49.296;10.602;2024-01-16T20:09:19;-5.20;59.40
975;DHT22;6115;49.296;10.602;2024-01-16T20:14:19;-5.40;60.10
975;DHT22;6115;49.296;10.602;2024-01-16T20:19:20;-5.60;59.70
975;DHT22;6115;49.296;10.602;2024-01-16T20:24:20;-5.60;59.70
975;DHT22;6115;49.296;10.602;2024-01-16T20:29:21;-5.70;59.70
975;DHT22;6115;49.296;10.602;2024-01-16T20:34:22;-5.70;59.70
975;DHT22;6115;49.296;10.602;2024-01-16T20:39:26;-6.00;59.70
975;DHT22;6115;49.296;10.602;2024-01-16T20:44:26;-6.10;59.60
975;DHT22;6115;49.296;10.602;2024-01-16T20:49:32;-6.20;59.40
975;DHT22;6115;49.296;10.602;2024-01-16T20:54:38;-6.40;59.40
975;DHT22;6115;49.296;10.602;2024-01-16T20:59:39;-6.40;59.30
975;DHT22;6115;49.296;10.602;2024-01-16T21:04:39;-6.50;59.70
975;DHT22;6115;49.296;10.602;2024-01-16T21:09:42;-6.60;59.00
975;DHT22;6115;49.296;10.602;2024-01-16T21:14:43;-6.70;59.00
975;DHT22;6115;49.296;10.602;2024-01-16T21:19:44;-6.90;59.40
975;DHT22;6115;49.296;10.602;2024-01-16T21:24:45;-6.90;59.40
975;DHT22;6115;49.296;10.602;2024-01-16T21:29:45;-7.00;59.30
975;DHT22;6115;49.296;10.602;2024-01-16T21:34:52;-7.10;59.20
975;DHT22;6115;49.296;10.602;2024-01-16T21:39:57;-7.10;59.20
975;DHT22;6115;49.296;10.602;2024-01-16T21:44:57;-7.20;59.20
975;DHT22;6115;49.296;10.602;2024-01-16T21:49:58;-7.30;59.10
975;DHT22;6115;49.296;10.602;2024-01-16T21:54:59;-7.40;59.00
975;DHT22;6115;49.296;10.602;2024-01-16T21:59:59;-7.40;59.00
975;DHT22;6115;49.296;10.602;2024-01-16T22:05:00;-7.50;58.90
975;DHT22;6115;49.296;10.602;2024-01-16T22:10:01;-7.60;58.90
975;DHT22;6115;49.296;10.602;2024-01-16T22:15:01;-7.60;58.80
975;DHT22;6115;49.296;10.602;2024-01-16T22:20:02;-7.80;58.70
975;DHT22;6115;49.296;10.602;2024-01-16T22:25:06;-7.90;58.60
975;DHT22;6115;49.296;10.602;2024-01-16T22:30:08;-7.90;58.60
975;DHT22;6115;49.296;10.602;2024-01-16T22:35:10;-7.90;58.60
975;DHT22;6115;49.296;10.602;2024-01-16T22:40:11;-8.10;58.50
975;DHT22;6115;49.296;10.602;2024-01-16T22:45:12;-8.10;58.40
975;DHT22;6115;49.296;10.602;2024-01-16T22:50:15;-8.10;58.40
975;DHT22;6115;49.296;10.602;2024-01-16T22:55:16;-8.10;58.50
975;DHT22;6115;49.296;10.602;2024-01-16T23:00:16;-8.20;58.60
975;DHT22;6115;49.296;10.602;2024-01-16T23:05:20;-8.20;59.40
975;DHT22;6115;49.296;10.602;2024-01-16T23:10:23;-8.00;59.80
975;DHT22;6115;49.296;10.602;2024-01-16T23:15:26;-8.10;58.50
975;DHT22;6115;49.296;10.602;2024-01-16T23:20:26;-8.20;58.50
975;DHT22;6115;49.296;10.602;2024-01-16T23:25:31;-8.30;59.00
975;DHT22;6115;49.296;10.602;2024-01-16T23:30:31;-8.40;59.20
975;DHT22;6115;49.296;10.602;2024-01-16T23:35:32;-8.40;59.40
975;DHT22;6115;49.296;10.602;2024-01-16T23:40:32;-8.50;59.30
975;DHT22;6115;49.296;10.602;2024-01-16T23:45:33;-8.50;59.30
975;DHT22;6115;49.296;10.602;2024-01-16T23:50:36;-8.60;59.10
975;DHT22;6115;49.296;10.602;2024-01-16T23:55:38;-8.50;59.20
